createdAt,value
2023-01-01T00:01:25.022Z,2.12
2023-01-01T00:03:54.116Z,2.23
2023-01-01T00:06:22.306Z,2.24
2023-01-01T00:08:49.831Z,2.21
2023-01-01T00:11:17.393Z,2.17
2023-01-01T00:13:44.932Z,2.18
2023-01-01T00:16:15.072Z,2.19
2023-01-01T00:18:42.545Z,2.25
2023-01-01T00:21:14.505Z,2.26
2023-01-01T00:23:42.025Z,2.19
2023-01-01T00:26:11.749Z,2.28
2023-01-01T00:28:39.023Z,2.21
2023-01-01T00:31:08.778Z,2.27
2023-01-01T00:33:36.313Z,2.15
2023-01-01T00:36:11.552Z,2.17
2023-01-01T00:38:39.516Z,2.18
2023-01-01T00:41:07.978Z,2.23
2023-01-01T00:43:35.623Z,2.26
2023-01-01T00:46:05.081Z,2.17
2023-01-01T00:48:32.963Z,2.03
2023-01-01T00:51:00.961Z,2.04
2023-01-01T00:53:28.317Z,2.07
2023-01-01T00:55:56.634Z,2.03
2023-01-01T00:58:25.776Z,1.93
2023-01-01T01:00:53.783Z,1.94
2023-01-01T01:03:30.835Z,1.97
2023-01-01T01:06:09.957Z,1.97
2023-01-01T01:08:40.284Z,2.00
2023-01-01T01:11:17.312Z,1.95
2023-01-01T01:13:46.348Z,1.92
2023-01-01T01:16:25.779Z,1.89
2023-01-01T01:18:55.331Z,1.81
2023-01-01T01:21:24.385Z,1.80
2023-01-01T01:23:52.121Z,1.76
2023-01-01T01:26:31.458Z,1.65
2023-01-01T01:28:59.111Z,1.70
2023-01-01T01:31:31.821Z,1.77
2023-01-01T01:33:59.439Z,1.77
2023-01-01T01:36:27.972Z,1.72
2023-01-01T01:38:56.066Z,1.83
2023-01-01T01:41:28.666Z,1.86
2023-01-01T01:44:03.267Z,1.82
2023-01-01T01:46:51.517Z,1.85
2023-01-01T01:49:27.775Z,1.94
2023-01-01T01:51:56.699Z,1.95
2023-01-01T01:54:27.848Z,1.91
2023-01-01T01:57:03.020Z,1.92
2023-01-01T01:59:33.829Z,1.88
2023-01-01T02:02:02.134Z,1.85
2023-01-01T02:04:30.121Z,1.86
2023-01-01T02:06:57.799Z,1.84
2023-01-01T02:09:25.288Z,1.83
2023-01-01T02:11:52.941Z,1.86
2023-01-01T02:14:20.156Z,1.70
2023-01-01T02:17:03.533Z,1.86
2023-01-01T02:19:58.380Z,1.91
2023-01-01T02:23:05.973Z,1.79
2023-01-01T02:25:58.543Z,1.80
2023-01-01T02:28:59.957Z,1.76
2023-01-01T02:31:43.633Z,1.66
2023-01-01T02:34:16.501Z,1.64
2023-01-01T02:36:51.656Z,1.68
2023-01-01T02:39:23.141Z,1.69
2023-01-01T02:41:54.349Z,1.72
2023-01-01T02:44:25.932Z,1.62
2023-01-01T02:46:53.227Z,1.77
2023-01-01T02:49:20.743Z,1.71
2023-01-01T02:52:04.700Z,1.69
2023-01-01T02:54:57.997Z,1.75
2023-01-01T02:57:38.982Z,1.74
2023-01-01T03:00:19.658Z,1.63
2023-01-01T03:02:51.156Z,1.51
2023-01-01T03:05:31.226Z,1.53
2023-01-01T03:08:13.772Z,1.44
2023-01-01T03:11:02.828Z,1.43
2023-01-01T03:13:35.979Z,1.38
2023-01-01T03:16:28.687Z,1.46
2023-01-01T03:19:12.041Z,1.50
2023-01-01T03:21:46.176Z,1.38
2023-01-01T03:24:20.159Z,1.47
2023-01-01T03:26:53.118Z,1.52
2023-01-01T03:29:24.153Z,1.54
2023-01-01T03:31:55.651Z,1.58
2023-01-01T03:34:31.952Z,1.51
2023-01-01T03:37:04.463Z,1.43
2023-01-01T03:39:41.780Z,1.53
2023-01-01T03:42:12.381Z,1.45
2023-01-01T03:44:48.513Z,1.36
2023-01-01T03:47:17.002Z,1.39
2023-01-01T03:49:45.618Z,1.39
2023-01-01T03:52:34.578Z,1.45
2023-01-01T03:55:09.371Z,1.40
2023-01-01T03:57:52.693Z,1.43
2023-01-01T04:00:27.201Z,1.32
2023-01-01T04:03:02.724Z,1.39
2023-01-01T04:05:31.712Z,1.36
2023-01-01T04:08:03.206Z,1.38
2023-01-01T04:10:33.262Z,1.41
2023-01-01T04:13:04.216Z,1.46
2023-01-01T04:15:32.551Z,1.41
2023-01-01T04:18:00.060Z,1.41
2023-01-01T04:20:27.404Z,1.38
2023-01-01T04:22:59.527Z,1.44
2023-01-01T04:25:27.803Z,1.47
2023-01-01T04:27:58.611Z,1.44
2023-01-01T04:30:27.082Z,1.49
2023-01-01T04:32:55.253Z,1.42
2023-01-01T04:35:22.822Z,1.48
2023-01-01T04:37:50.403Z,1.42
2023-01-01T04:40:17.950Z,1.38
2023-01-01T04:42:45.533Z,1.31
2023-01-01T04:45:15.386Z,1.13
2023-01-01T04:47:43.508Z,1.02
2023-01-01T04:50:10.768Z,0.89
2023-01-01T04:52:38.340Z,0.89
2023-01-01T04:55:06.053Z,0.87
2023-01-01T04:57:33.655Z,0.81
2023-01-01T05:00:00.837Z,0.81
2023-01-01T05:02:28.560Z,0.82
2023-01-01T05:04:55.969Z,0.89
2023-01-01T05:07:23.461Z,0.90
2023-01-01T05:09:50.798Z,0.97
2023-01-01T05:12:18.333Z,1.04
2023-01-01T05:14:45.466Z,1.00
2023-01-01T05:17:13.116Z,0.92
2023-01-01T05:19:40.912Z,1.04
2023-01-01T05:22:10.902Z,1.06
2023-01-01T05:24:38.583Z,1.03
2023-01-01T05:27:06.237Z,1.07
2023-01-01T05:29:33.467Z,1.08
2023-01-01T05:32:01.103Z,1.10
2023-01-01T05:36:56.455Z,1.02
2023-01-01T05:39:23.856Z,1.04
2023-01-01T05:41:52.027Z,1.02
2023-01-01T05:44:19.781Z,0.96
2023-01-01T05:46:46.985Z,1.03
2023-01-01T05:49:14.750Z,1.02
2023-01-01T05:56:39.271Z,1.01
2023-01-01T05:59:06.824Z,1.07
2023-01-01T06:01:38.805Z,1.02
2023-01-01T06:04:10.956Z,1.00
2023-01-01T06:06:41.263Z,0.90
2023-01-01T06:09:10.477Z,0.79
2023-01-01T06:11:37.641Z,0.87
2023-01-01T06:14:05.213Z,0.75
2023-01-01T06:16:33.236Z,0.76
2023-01-01T06:19:01.577Z,0.60
2023-01-01T06:21:29.782Z,0.73
2023-01-01T06:23:59.105Z,0.74
2023-01-01T06:26:29.268Z,0.65
2023-01-01T06:28:57.896Z,0.65
2023-01-01T06:31:25.264Z,0.58
2023-01-01T06:33:52.873Z,0.66
2023-01-01T06:36:22.859Z,0.78
2023-01-01T06:38:52.794Z,0.85
2023-01-01T06:41:24.928Z,0.88
2023-01-01T06:43:53.757Z,0.89
2023-01-01T06:46:35.498Z,0.96
2023-01-01T06:49:06.499Z,0.96
2023-01-01T06:51:38.368Z,1.08
2023-01-01T06:54:06.800Z,1.07
2023-01-01T06:56:35.266Z,1.08
2023-01-01T06:59:05.035Z,1.20
2023-01-01T07:01:34.015Z,1.26
2023-01-01T07:04:04.317Z,1.27
2023-01-01T07:06:33.003Z,1.33
2023-01-01T07:09:01.320Z,1.38
2023-01-01T07:11:29.415Z,1.40
2023-01-01T07:13:57.054Z,1.24
2023-01-01T07:16:25.027Z,1.38
2023-01-01T07:18:52.968Z,1.41
2023-01-01T07:21:34.037Z,1.29
2023-01-01T07:24:05.502Z,1.33
2023-01-01T07:26:34.293Z,1.33
2023-01-01T07:29:07.470Z,1.23
2023-01-01T07:31:37.490Z,1.59
2023-01-01T07:34:13.773Z,1.75
2023-01-01T07:36:41.582Z,1.70
2023-01-01T07:39:10.344Z,1.70
2023-01-01T07:41:37.641Z,1.73
2023-01-01T07:44:05.505Z,1.79
2023-01-01T07:46:35.293Z,2.01
2023-01-01T07:49:03.145Z,2.16
2023-01-01T07:51:30.509Z,2.08
2023-01-01T07:54:03.899Z,2.22
2023-01-01T07:56:34.775Z,2.26
2023-01-01T07:59:02.307Z,2.39
2023-01-01T08:01:29.641Z,2.38
2023-01-01T08:03:57.230Z,2.48
2023-01-01T08:06:24.510Z,2.37
2023-01-01T08:08:51.999Z,2.35
2023-01-01T08:11:19.274Z,2.48
2023-01-01T08:13:46.805Z,2.56
2023-01-01T08:16:14.202Z,2.57
2023-01-01T08:18:41.781Z,2.73
2023-01-01T08:21:09.105Z,2.74
2023-01-01T08:23:36.677Z,2.95
2023-01-01T08:26:04.216Z,3.01
2023-01-01T08:28:31.972Z,3.10
2023-01-01T08:31:00.505Z,3.14
2023-01-01T08:33:29.938Z,3.14
2023-01-01T08:35:57.268Z,3.09
2023-01-01T08:38:25.017Z,3.23
2023-01-01T08:40:52.405Z,3.31
2023-01-01T08:43:19.876Z,3.37
2023-01-01T08:45:47.244Z,3.48
2023-01-01T08:48:14.782Z,3.74
2023-01-01T08:50:42.032Z,3.94
2023-01-01T08:53:10.758Z,4.10
2023-01-01T08:55:38.025Z,4.11
2023-01-01T08:58:08.656Z,4.25
2023-01-01T09:00:36.067Z,4.40
2023-01-01T09:03:06.537Z,4.60
2023-01-01T09:05:33.794Z,4.77
2023-01-01T09:08:01.302Z,5.15
2023-01-01T09:10:28.511Z,5.74
2023-01-01T09:12:56.344Z,6.22
2023-01-01T09:15:23.541Z,6.52
2023-01-01T09:17:51.266Z,7.04
2023-01-01T09:20:18.462Z,7.77
2023-01-01T09:22:45.923Z,8.69
2023-01-01T09:25:13.431Z,9.49
2023-01-01T09:27:41.093Z,10.33
2023-01-01T09:30:09.177Z,10.73
2023-01-01T09:32:36.657Z,10.60
2023-01-01T09:35:04.152Z,10.33
2023-01-01T09:37:31.681Z,10.13
2023-01-01T09:39:58.932Z,9.81
2023-01-01T09:43:02.063Z,9.70
2023-01-01T09:45:35.231Z,9.64
2023-01-01T09:48:11.773Z,9.63
2023-01-01T09:50:42.123Z,9.99
2023-01-01T09:53:31.940Z,10.39
2023-01-01T09:56:02.072Z,10.46
2023-01-01T09:58:34.579Z,10.36
2023-01-01T10:01:27.567Z,10.35
2023-01-01T10:04:13.415Z,10.43
2023-01-01T10:06:51.579Z,10.44
2023-01-01T10:09:24.110Z,10.35
2023-01-01T10:11:52.205Z,10.35
2023-01-01T10:14:33.612Z,10.40
2023-01-01T10:17:06.766Z,10.32
2023-01-01T10:19:49.807Z,10.46
2023-01-01T10:22:22.801Z,10.37
2023-01-01T10:25:03.953Z,10.31
2023-01-01T10:27:37.060Z,9.94
2023-01-01T10:30:15.426Z,10.00
2023-01-01T10:32:44.947Z,10.16
2023-01-01T10:35:19.036Z,10.41
2023-01-01T10:37:46.604Z,10.77
2023-01-01T10:40:18.647Z,11.27
2023-01-01T10:42:50.256Z,11.87
2023-01-01T10:45:24.293Z,12.42
2023-01-01T10:48:12.062Z,13.11
2023-01-01T10:50:55.878Z,13.80
2023-01-01T10:53:31.281Z,14.23
2023-01-01T10:56:12.254Z,14.70
2023-01-01T10:58:44.082Z,15.52
2023-01-01T11:01:28.014Z,15.83
2023-01-01T11:04:09.143Z,15.63
2023-01-01T11:06:47.134Z,15.32
2023-01-01T11:09:29.361Z,14.91
2023-01-01T11:12:09.394Z,14.51
2023-01-01T11:14:49.473Z,14.01
2023-01-01T11:17:26.166Z,13.66
2023-01-01T11:20:20.054Z,13.56
2023-01-01T11:36:07.356Z,16.75
2023-01-01T11:38:35.434Z,17.14
2023-01-01T11:41:08.029Z,17.51
2023-01-01T11:43:43.958Z,17.63
2023-01-01T11:46:23.968Z,17.42
2023-01-01T11:48:54.748Z,17.10
2023-01-01T11:51:33.332Z,17.16
2023-01-01T11:54:30.947Z,17.59
2023-01-01T11:57:17.276Z,18.02
2023-01-01T11:59:50.777Z,18.24
2023-01-01T12:02:36.762Z,18.40
2023-01-01T12:05:25.731Z,18.64
2023-01-01T12:07:55.482Z,18.75
2023-01-01T12:10:27.753Z,18.92
2023-01-01T12:13:04.584Z,18.98
2023-01-01T12:16:13.883Z,18.93
2023-01-01T12:18:58.638Z,19.07
2023-01-01T12:21:32.837Z,19.08
2023-01-01T12:24:00.589Z,19.11
2023-01-01T12:26:52.443Z,19.36
2023-01-01T12:29:20.007Z,19.63
2023-01-01T12:31:59.768Z,19.84
2023-01-01T12:34:38.546Z,19.96
2023-01-01T12:37:16.196Z,19.93
2023-01-01T12:40:25.302Z,19.81
2023-01-01T12:43:12.600Z,19.52
2023-01-01T12:46:03.425Z,19.08
2023-01-01T12:48:36.201Z,18.31
2023-01-01T12:51:26.071Z,17.57
2023-01-01T12:54:16.440Z,16.86
2023-01-01T12:56:53.423Z,16.27
2023-01-01T12:59:42.680Z,15.86
2023-01-01T13:02:23.830Z,15.45
2023-01-01T13:05:02.366Z,15.14
2023-01-01T13:07:44.028Z,14.76
2023-01-01T13:10:40.237Z,14.48
2023-01-01T13:13:12.418Z,14.22
2023-01-01T13:15:43.415Z,13.87
2023-01-01T13:18:14.124Z,13.55
2023-01-01T13:20:53.386Z,13.28
2023-01-01T13:23:30.137Z,13.14
2023-01-01T13:26:22.936Z,12.91
2023-01-01T13:28:51.621Z,12.75
2023-01-01T13:31:19.136Z,12.63
2023-01-01T13:34:26.770Z,12.44
2023-01-01T13:37:34.428Z,12.24
2023-01-01T13:40:14.085Z,11.99
2023-01-01T13:42:44.480Z,11.75
2023-01-01T13:45:36.838Z,11.51
2023-01-01T13:48:37.983Z,11.49
2023-01-01T13:51:55.360Z,11.50
2023-01-01T13:54:20.320Z,11.30
2023-01-01T13:56:59.219Z,11.20
2023-01-01T13:59:26.370Z,11.05
2023-01-01T14:02:02.420Z,11.00
2023-01-01T14:04:42.480Z,11.00
2023-01-01T14:07:50.668Z,10.69
2023-01-01T14:10:48.278Z,10.51
2023-01-01T14:13:17.638Z,10.45
2023-01-01T14:15:52.720Z,10.29
2023-01-01T14:18:33.943Z,10.18
2023-01-01T14:21:01.697Z,10.10
2023-01-01T14:23:40.040Z,10.03
2023-01-01T14:26:12.378Z,9.88
2023-01-01T14:28:40.521Z,9.78
2023-01-01T14:31:19.438Z,9.64
2023-01-01T14:33:47.665Z,9.55
2023-01-01T14:36:17.718Z,9.38
2023-01-01T14:38:48.213Z,9.25
2023-01-01T14:41:20.752Z,9.12
2023-01-01T14:43:51.101Z,8.98
2023-01-01T14:46:22.872Z,8.88
2023-01-01T14:49:03.641Z,8.74
2023-01-01T14:51:32.174Z,8.52
2023-01-01T14:54:02.358Z,8.32
2023-01-01T14:56:32.758Z,8.21
2023-01-01T14:59:26.041Z,8.09
2023-01-01T15:02:13.432Z,7.90
2023-01-01T15:04:42.544Z,7.75
2023-01-01T15:07:23.140Z,7.33
2023-01-01T15:09:52.530Z,7.38
2023-01-01T15:12:21.281Z,7.17
2023-01-01T15:14:54.198Z,7.01
2023-01-01T15:17:26.593Z,6.85
2023-01-01T15:20:01.456Z,6.79
2023-01-01T15:22:35.927Z,6.55
2023-01-01T15:25:06.315Z,6.22
2023-01-01T15:27:37.082Z,6.01
2023-01-01T15:30:13.250Z,5.94
2023-01-01T15:32:42.536Z,5.84
2023-01-01T15:35:33.969Z,5.79
2023-01-01T15:38:19.752Z,5.63
2023-01-01T15:40:53.023Z,5.49
2023-01-01T15:43:26.230Z,5.46
2023-01-01T15:46:25.079Z,5.36
2023-01-01T15:48:56.757Z,5.15
2023-01-01T15:51:27.001Z,5.07
2023-01-01T15:54:02.087Z,5.00
2023-01-01T15:56:33.253Z,4.93
2023-01-01T15:59:18.803Z,4.71
2023-01-01T16:01:47.147Z,4.56
2023-01-01T16:04:27.678Z,4.53
2023-01-01T16:06:58.206Z,4.43
2023-01-01T16:09:25.816Z,4.32
2023-01-01T16:11:55.738Z,4.25
2023-01-01T16:14:23.917Z,4.10
2023-01-01T16:16:57.507Z,3.99
2023-01-01T16:19:25.178Z,4.00
2023-01-01T16:21:52.705Z,3.95
2023-01-01T16:24:20.982Z,3.94
2023-01-01T16:26:49.075Z,3.93
2023-01-01T16:29:16.739Z,3.96
2023-01-01T16:31:47.579Z,3.96
2023-01-01T16:34:15.325Z,3.93
2023-01-01T16:36:44.602Z,3.89
2023-01-01T16:39:12.400Z,3.79
2023-01-01T16:41:42.120Z,3.75
2023-01-01T16:44:16.203Z,3.73
2023-01-01T16:46:44.724Z,3.63
2023-01-01T16:49:12.083Z,3.51
2023-01-01T16:51:43.805Z,3.38
2023-01-01T16:54:12.024Z,3.29
2023-01-01T16:56:39.551Z,3.32
2023-01-01T16:59:06.792Z,3.25
2023-01-01T17:01:34.441Z,3.14
2023-01-01T17:04:01.813Z,3.11
2023-01-01T17:06:29.404Z,3.07
2023-01-01T17:09:00.824Z,2.93
2023-01-01T17:11:28.453Z,2.84
2023-01-01T17:13:57.261Z,2.86
2023-01-01T17:16:34.445Z,2.87
2023-01-01T17:19:20.369Z,2.74
2023-01-01T17:21:48.829Z,2.71
2023-01-01T17:24:17.868Z,2.79
2023-01-01T17:26:46.024Z,2.79
2023-01-01T17:29:13.332Z,2.71
2023-01-01T17:31:41.201Z,2.70
2023-01-01T17:34:14.313Z,2.67
2023-01-01T17:36:44.855Z,2.72
2023-01-01T17:39:14.224Z,2.73
2023-01-01T17:41:43.354Z,2.70
2023-01-01T17:44:11.762Z,2.64
2023-01-01T17:46:39.873Z,2.61
2023-01-01T17:49:09.261Z,2.51
2023-01-01T17:51:37.286Z,2.38
2023-01-01T17:54:07.331Z,2.26
2023-01-01T17:56:35.059Z,2.19
2023-01-01T17:59:02.347Z,2.16
2023-01-01T18:01:33.081Z,2.11
2023-01-01T18:04:06.535Z,2.14
2023-01-01T18:06:41.960Z,2.16
2023-01-01T18:09:12.289Z,2.13
2023-01-01T18:11:40.705Z,2.07
2023-01-01T18:14:08.002Z,2.00
2023-01-01T18:16:37.560Z,1.96
2023-01-01T18:19:05.773Z,1.86
2023-01-01T18:21:35.049Z,1.84
2023-01-01T18:24:02.499Z,1.76
2023-01-01T18:26:31.389Z,1.70
2023-01-01T18:29:00.867Z,1.67
2023-01-01T18:31:30.921Z,1.67
2023-01-01T18:33:58.772Z,1.73
2023-01-01T18:36:29.993Z,1.78
2023-01-01T18:39:01.706Z,1.88
2023-01-01T18:41:54.255Z,2.03
2023-01-01T18:44:26.881Z,2.10
2023-01-01T18:47:08.094Z,2.15
2023-01-01T18:49:37.969Z,2.00
2023-01-01T18:52:05.726Z,1.80
2023-01-01T18:54:34.292Z,1.76
2023-01-01T18:57:07.959Z,1.68
2023-01-01T18:59:37.438Z,1.59
2023-01-01T19:02:34.587Z,1.59
2023-01-01T19:05:15.908Z,1.59
2023-01-01T19:08:06.801Z,1.46
2023-01-01T19:10:50.359Z,1.44
2023-01-01T19:13:18.042Z,1.38
2023-01-01T19:15:52.158Z,1.30
2023-01-01T19:18:22.949Z,1.29
2023-01-01T19:20:57.869Z,1.23
2023-01-01T19:23:25.897Z,1.16
2023-01-01T19:25:53.742Z,1.17
2023-01-01T19:28:35.980Z,1.13
2023-01-01T19:31:05.249Z,1.07
2023-01-01T19:33:33.362Z,1.06
2023-01-01T19:36:00.727Z,1.01
2023-01-01T19:38:28.392Z,1.09
2023-01-01T19:40:55.807Z,1.07
2023-01-01T19:43:23.596Z,0.99
2023-01-01T19:45:50.996Z,0.87
2023-01-01T19:48:18.684Z,0.83
2023-01-01T19:50:46.935Z,0.74
2023-01-01T19:53:14.709Z,0.65
2023-01-01T19:55:42.962Z,0.55
2023-01-01T19:58:11.267Z,0.54
2023-01-01T20:00:38.980Z,0.52
2023-01-01T20:03:42.945Z,0.43
2023-01-01T20:05:53.962Z,0.37
2023-01-01T20:08:22.371Z,0.38
2023-01-01T20:10:49.783Z,0.28
2023-01-01T20:13:17.411Z,0.23
2023-01-01T20:15:46.877Z,0.22
2023-01-01T20:18:14.953Z,0.36
2023-01-01T20:21:00.692Z,0.31
2023-01-01T20:23:28.647Z,0.38
2023-01-01T20:25:56.020Z,0.38
2023-01-01T20:28:42.210Z,0.37
2023-01-01T20:31:09.723Z,0.33
2023-01-01T20:33:37.579Z,0.43
2023-01-01T20:36:23.416Z,0.53
2023-01-01T20:38:51.164Z,0.52
2023-01-01T20:41:24.448Z,0.52
2023-01-01T20:43:54.182Z,0.48
2023-01-01T20:46:22.099Z,0.43
2023-01-01T20:48:49.728Z,0.43
2023-01-01T20:51:17.154Z,0.43
2023-01-01T20:53:45.021Z,0.39
2023-01-01T20:56:12.509Z,0.50
2023-01-01T20:58:47.662Z,0.49
2023-01-01T21:01:16.904Z,0.54
2023-01-01T21:03:44.635Z,0.45
2023-01-01T21:06:12.112Z,0.39
2023-01-01T21:08:39.859Z,0.36
2023-01-01T21:11:09.291Z,0.28
2023-01-01T21:13:37.035Z,0.34
2023-01-01T21:16:16.329Z,0.41
2023-01-01T21:18:44.179Z,0.38
2023-01-01T21:21:21.103Z,0.44
2023-01-01T21:23:51.420Z,0.35
2023-01-01T21:26:32.088Z,0.44
2023-01-01T21:29:00.411Z,0.13
2023-01-01T21:31:37.105Z,0.08
2023-01-01T21:34:26.794Z,0.24
2023-01-01T21:37:00.508Z,0.26
2023-01-01T21:39:30.050Z,0.24
2023-01-01T21:42:24.208Z,0.26
2023-01-01T21:44:57.917Z,0.16
2023-01-01T21:47:26.297Z,0.21
2023-01-01T21:49:56.628Z,0.11
2023-01-01T21:52:26.055Z,0.13
2023-01-01T21:54:53.687Z,0.01
2023-01-01T21:57:25.253Z,-0.02
2023-01-01T21:59:54.345Z,-0.06
2023-01-01T22:02:30.259Z,-0.08
2023-01-01T22:05:01.147Z,-0.11
2023-01-01T22:10:24.094Z,-0.16
2023-01-01T22:12:58.919Z,-0.13
2023-01-01T22:15:30.615Z,-0.13
2023-01-01T22:18:13.411Z,-0.19
2023-01-01T22:20:44.418Z,-0.06
2023-01-01T22:23:24.408Z,-0.13
2023-01-01T22:25:53.137Z,-0.14
2023-01-01T22:28:32.183Z,-0.19
2023-01-01T22:31:02.060Z,-0.18
2023-01-01T22:33:43.117Z,-0.16
2023-01-01T22:36:18.356Z,-0.13
2023-01-01T22:38:46.048Z,-0.17
2023-01-01T22:41:14.374Z,-0.19
2023-01-01T22:43:45.312Z,-0.13
2023-01-01T22:46:29.853Z,-0.16
2023-01-01T22:49:17.107Z,-0.15
2023-01-01T22:51:46.578Z,-0.22
2023-01-01T22:54:13.844Z,-0.31
2023-01-01T22:56:41.432Z,-0.39
2023-01-01T22:59:08.796Z,-0.32
2023-01-01T23:01:36.417Z,-0.31
2023-01-01T23:04:03.853Z,-0.35
2023-01-01T23:06:32.858Z,-0.28
2023-01-01T23:09:00.218Z,-0.28
2023-01-01T23:11:28.132Z,-0.35
2023-01-01T23:14:14.250Z,-0.30
2023-01-01T23:16:41.838Z,-0.20
2023-01-01T23:19:09.068Z,-0.17
2023-01-01T23:21:38.119Z,-0.12
2023-01-01T23:24:09.671Z,-0.07
2023-01-01T23:26:39.042Z,-0.05
2023-01-01T23:29:07.577Z,-0.13
2023-01-01T23:31:35.629Z,-0.05
2023-01-01T23:34:03.084Z,-0.07
2023-01-01T23:36:31.585Z,-0.02
2023-01-01T23:38:58.815Z,-0.05
2023-01-01T23:41:26.479Z,-0.06
2023-01-01T23:43:53.639Z,-0.10
2023-01-01T23:46:21.763Z,-0.11
2023-01-01T23:48:49.349Z,-0.03
2023-01-01T23:51:17.568Z,-0.01
2023-01-01T23:53:45.127Z,-0.03
2023-01-01T23:56:12.892Z,-0.10
2023-01-01T23:58:40.318Z,-0.12
